sensor_id;sensor_type;location;lat;lon;timestamp;P1;durP1;ratioP1;P2;durP2;ratioP2
16813;SDS011;8524;57.650;11.926;2023-05-02T00:00:24;0.90;;;0.90;;
16813;SDS011;8524;57.650;11.926;2023-05-02T00:02:53;0.80;;;0.80;;
16813;SDS011;8524;57.650;11.926;2023-05-02T00:05:20;0.80;;;0.80;;
16813;SDS011;8524;57.650;11.926;2023-05-02T00:07:48;1.15;;;1.00;;
16813;SDS011;8524;57.650;11.926;2023-05-02T00:10:15;1.30;;;1.20;;
16813;SDS011;8524;57.650;11.926;2023-05-02T00:12:42;1.00;;;1.00;;
16813;SDS011;8524;57.650;11.926;2023-05-02T00:15:09;1.20;;;1.10;;
16813;SDS011;8524;57.650;11.926;2023-05-02T00:17:38;1.00;;;0.83;;
16813;SDS011;8524;57.650;11.926;2023-05-02T00:20:08;1.10;;;1.10;;
16813;SDS011;8524;57.650;11.926;2023-05-02T00:22:36;0.90;;;0.90;;
16813;SDS011;8524;57.650;11.926;2023-05-02T00:25:04;1.60;;;0.90;;
16813;SDS011;8524;57.650;11.926;2023-05-02T00:27:32;1.47;;;1.00;;
16813;SDS011;8524;57.650;11.926;2023-05-02T00:29:59;0.90;;;0.90;;
16813;SDS011;8524;57.650;11.926;2023-05-02T00:32:26;0.93;;;0.83;;
16813;SDS011;8524;57.650;11.926;2023-05-02T00:34:54;1.00;;;1.00;;
16813;SDS011;8524;57.650;11.926;2023-05-02T00:37:24;0.90;;;0.90;;
16813;SDS011;8524;57.650;11.926;2023-05-02T00:39:53;1.00;;;1.00;;
16813;SDS011;8524;57.650;11.926;2023-05-02T00:42:20;2.03;;;1.20;;
16813;SDS011;8524;57.650;11.926;2023-05-02T00:44:47;0.93;;;0.93;;
16813;SDS011;8524;57.650;11.926;2023-05-02T00:47:14;1.00;;;1.00;;
16813;SDS011;8524;57.650;11.926;2023-05-02T00:49:41;1.17;;;1.07;;
16813;SDS011;8524;57.650;11.926;2023-05-02T00:52:08;0.97;;;0.87;;
16813;SDS011;8524;57.650;11.926;2023-05-02T00:54:37;1.17;;;1.07;;
16813;SDS011;8524;57.650;11.926;2023-05-02T00:57:04;0.77;;;0.77;;
16813;SDS011;8524;57.650;11.926;2023-05-02T00:59:32;1.30;;;1.10;;
16813;SDS011;8524;57.650;11.926;2023-05-02T01:02:03;1.00;;;1.00;;
16813;SDS011;8524;57.650;11.926;2023-05-02T01:04:39;0.80;;;0.80;;
16813;SDS011;8524;57.650;11.926;2023-05-02T01:07:18;1.30;;;1.20;;
16813;SDS011;8524;57.650;11.926;2023-05-02T01:10:00;0.97;;;0.97;;
16813;SDS011;8524;57.650;11.926;2023-05-02T01:12:38;0.93;;;0.90;;
16813;SDS011;8524;57.650;11.926;2023-05-02T01:15:09;1.20;;;1.20;;
16813;SDS011;8524;57.650;11.926;2023-05-02T01:17:41;0.90;;;0.90;;
16813;SDS011;8524;57.650;11.926;2023-05-02T01:20:12;1.00;;;1.00;;
16813;SDS011;8524;57.650;11.926;2023-05-02T01:22:44;1.00;;;1.00;;
16813;SDS011;8524;57.650;11.926;2023-05-02T01:25:17;1.40;;;1.30;;
16813;SDS011;8524;57.650;11.926;2023-05-02T01:27:53;1.30;;;1.20;;
16813;SDS011;8524;57.650;11.926;2023-05-02T01:30:28;1.23;;;1.13;;
16813;SDS011;8524;57.650;11.926;2023-05-02T01:32:59;1.27;;;1.17;;
16813;SDS011;8524;57.650;11.926;2023-05-02T01:35:28;1.60;;;1.50;;
16813;SDS011;8524;57.650;11.926;2023-05-02T01:37:58;1.50;;;1.40;;
16813;SDS011;8524;57.650;11.926;2023-05-02T01:40:27;1.40;;;1.30;;
16813;SDS011;8524;57.650;11.926;2023-05-02T01:42:55;1.40;;;1.30;;
16813;SDS011;8524;57.650;11.926;2023-05-02T01:45:24;1.27;;;1.17;;
16813;SDS011;8524;57.650;11.926;2023-05-02T01:47:54;1.53;;;1.43;;
16813;SDS011;8524;57.650;11.926;2023-05-02T01:50:23;1.20;;;1.20;;
16813;SDS011;8524;57.650;11.926;2023-05-02T01:52:51;1.40;;;1.30;;
16813;SDS011;8524;57.650;11.926;2023-05-02T01:55:19;1.30;;;1.20;;
16813;SDS011;8524;57.650;11.926;2023-05-02T01:57:49;1.40;;;1.30;;
16813;SDS011;8524;57.650;11.926;2023-05-02T02:00:19;1.30;;;1.20;;
16813;SDS011;8524;57.650;11.926;2023-05-02T02:02:48;1.47;;;1.27;;
16813;SDS011;8524;57.650;11.926;2023-05-02T02:05:19;1.70;;;1.60;;
16813;SDS011;8524;57.650;11.926;2023-05-02T02:07:48;1.37;;;1.27;;
16813;SDS011;8524;57.650;11.926;2023-05-02T02:10:15;1.70;;;1.60;;
16813;SDS011;8524;57.650;11.926;2023-05-02T02:12:44;1.30;;;1.20;;
16813;SDS011;8524;57.650;11.926;2023-05-02T02:15:18;1.60;;;1.50;;
16813;SDS011;8524;57.650;11.926;2023-05-02T02:17:48;1.73;;;1.50;;
16813;SDS011;8524;57.650;11.926;2023-05-02T02:20:23;1.63;;;1.53;;
16813;SDS011;8524;57.650;11.926;2023-05-02T02:22:52;1.83;;;1.73;;
16813;SDS011;8524;57.650;11.926;2023-05-02T02:25:19;1.73;;;1.50;;
16813;SDS011;8524;57.650;11.926;2023-05-02T02:27:47;1.43;;;1.30;;
16813;SDS011;8524;57.650;11.926;2023-05-02T02:30:14;1.67;;;1.57;;
16813;SDS011;8524;57.650;11.926;2023-05-02T02:32:41;1.57;;;1.47;;
16813;SDS011;8524;57.650;11.926;2023-05-02T02:35:08;1.97;;;1.60;;
16813;SDS011;8524;57.650;11.926;2023-05-02T02:37:38;1.43;;;1.33;;
16813;SDS011;8524;57.650;11.926;2023-05-02T02:40:09;1.97;;;1.60;;
16813;SDS011;8524;57.650;11.926;2023-05-02T02:42:43;1.60;;;1.50;;
16813;SDS011;8524;57.650;11.926;2023-05-02T02:45:18;1.70;;;1.47;;
16813;SDS011;8524;57.650;11.926;2023-05-02T02:47:54;1.77;;;1.67;;
16813;SDS011;8524;57.650;11.926;2023-05-02T02:50:29;2.00;;;1.80;;
16813;SDS011;8524;57.650;11.926;2023-05-02T02:53:01;1.70;;;1.60;;
16813;SDS011;8524;57.650;11.926;2023-05-02T02:55:35;1.50;;;1.40;;
16813;SDS011;8524;57.650;11.926;2023-05-02T02:58:14;1.70;;;1.60;;
16813;SDS011;8524;57.650;11.926;2023-05-02T03:00:47;1.77;;;1.40;;
16813;SDS011;8524;57.650;11.926;2023-05-02T03:03:15;2.17;;;2.00;;
16813;SDS011;8524;57.650;11.926;2023-05-02T03:05:44;2.03;;;1.93;;
16813;SDS011;8524;57.650;11.926;2023-05-02T03:08:13;1.70;;;1.60;;
16813;SDS011;8524;57.650;11.926;2023-05-02T03:10:40;2.37;;;2.00;;
16813;SDS011;8524;57.650;11.926;2023-05-02T03:13:07;2.00;;;1.80;;
16813;SDS011;8524;57.650;11.926;2023-05-02T03:18:43;1.87;;;1.77;;
16813;SDS011;8524;57.650;11.926;2023-05-02T03:21:10;1.93;;;1.80;;
16813;SDS011;8524;57.650;11.926;2023-05-02T03:23:38;2.37;;;2.17;;
16813;SDS011;8524;57.650;11.926;2023-05-02T03:26:05;3.27;;;2.00;;
16813;SDS011;8524;57.650;11.926;2023-05-02T03:28:32;2.30;;;1.80;;
16813;SDS011;8524;57.650;11.926;2023-05-02T03:30:59;2.07;;;1.97;;
16813;SDS011;8524;57.650;11.926;2023-05-02T03:33:26;1.77;;;1.67;;
16813;SDS011;8524;57.650;11.926;2023-05-02T03:35:53;1.80;;;1.70;;
16813;SDS011;8524;57.650;11.926;2023-05-02T03:38:23;2.30;;;2.10;;
16813;SDS011;8524;57.650;11.926;2023-05-02T03:40:52;2.20;;;2.00;;
16813;SDS011;8524;57.650;11.926;2023-05-02T03:43:22;2.30;;;2.10;;
16813;SDS011;8524;57.650;11.926;2023-05-02T03:45:49;2.10;;;1.90;;
16813;SDS011;8524;57.650;11.926;2023-05-02T03:48:16;3.10;;;2.00;;
16813;SDS011;8524;57.650;11.926;2023-05-02T03:50:44;2.83;;;1.97;;
16813;SDS011;8524;57.650;11.926;2023-05-02T03:53:11;1.80;;;1.70;;
16813;SDS011;8524;57.650;11.926;2023-05-02T03:55:39;2.60;;;2.40;;
16813;SDS011;8524;57.650;11.926;2023-05-02T03:58:09;2.23;;;2.03;;
16813;SDS011;8524;57.650;11.926;2023-05-02T04:00:36;2.40;;;2.20;;
16813;SDS011;8524;57.650;11.926;2023-05-02T04:03:03;2.97;;;2.67;;
16813;SDS011;8524;57.650;11.926;2023-05-02T04:05:31;2.50;;;2.30;;
16813;SDS011;8524;57.650;11.926;2023-05-02T04:07:59;3.40;;;2.50;;
16813;SDS011;8524;57.650;11.926;2023-05-02T04:10:27;4.27;;;2.90;;
16813;SDS011;8524;57.650;11.926;2023-05-02T04:12:54;3.23;;;2.70;;
16813;SDS011;8524;57.650;11.926;2023-05-02T04:15:22;2.90;;;2.60;;
16813;SDS011;8524;57.650;11.926;2023-05-02T04:17:49;2.70;;;2.50;;
16813;SDS011;8524;57.650;11.926;2023-05-02T04:20:16;2.87;;;2.67;;
16813;SDS011;8524;57.650;11.926;2023-05-02T04:22:44;2.63;;;2.30;;
16813;SDS011;8524;57.650;11.926;2023-05-02T04:25:12;3.13;;;2.87;;
16813;SDS011;8524;57.650;11.926;2023-05-02T04:27:39;3.60;;;3.30;;
16813;SDS011;8524;57.650;11.926;2023-05-02T04:30:06;3.00;;;2.70;;
16813;SDS011;8524;57.650;11.926;2023-05-02T04:32:35;3.43;;;2.70;;
16813;SDS011;8524;57.650;11.926;2023-05-02T04:35:03;2.77;;;2.57;;
16813;SDS011;8524;57.650;11.926;2023-05-02T04:37:31;3.07;;;2.73;;
16813;SDS011;8524;57.650;11.926;2023-05-02T04:39:58;2.97;;;2.67;;
16813;SDS011;8524;57.650;11.926;2023-05-02T04:42:25;2.97;;;2.70;;
16813;SDS011;8524;57.650;11.926;2023-05-02T04:44:52;2.83;;;2.63;;
16813;SDS011;8524;57.650;11.926;2023-05-02T04:47:19;3.00;;;2.80;;
16813;SDS011;8524;57.650;11.926;2023-05-02T04:49:47;3.10;;;2.80;;
16813;SDS011;8524;57.650;11.926;2023-05-02T04:52:14;3.40;;;3.10;;
16813;SDS011;8524;57.650;11.926;2023-05-02T04:54:41;4.40;;;3.03;;
16813;SDS011;8524;57.650;11.926;2023-05-02T04:57:08;3.43;;;2.83;;
16813;SDS011;8524;57.650;11.926;2023-05-02T04:59:35;3.47;;;3.00;;
16813;SDS011;8524;57.650;11.926;2023-05-02T05:02:02;4.13;;;3.30;;
16813;SDS011;8524;57.650;11.926;2023-05-02T05:04:30;4.33;;;3.00;;
16813;SDS011;8524;57.650;11.926;2023-05-02T05:06:58;3.37;;;2.63;;
16813;SDS011;8524;57.650;11.926;2023-05-02T05:09:25;2.80;;;2.60;;
16813;SDS011;8524;57.650;11.926;2023-05-02T05:11:52;4.10;;;2.70;;
16813;SDS011;8524;57.650;11.926;2023-05-02T05:14:19;4.73;;;2.67;;
16813;SDS011;8524;57.650;11.926;2023-05-02T05:16:47;3.60;;;2.83;;
16813;SDS011;8524;57.650;11.926;2023-05-02T05:19:13;2.30;;;2.10;;
16813;SDS011;8524;57.650;11.926;2023-05-02T05:21:40;3.13;;;2.47;;
16813;SDS011;8524;57.650;11.926;2023-05-02T05:24:09;2.50;;;2.30;;
16813;SDS011;8524;57.650;11.926;2023-05-02T05:26:36;2.40;;;2.20;;
16813;SDS011;8524;57.650;11.926;2023-05-02T05:29:03;2.80;;;2.20;;
16813;SDS011;8524;57.650;11.926;2023-05-02T05:31:30;2.50;;;1.97;;
16813;SDS011;8524;57.650;11.926;2023-05-02T05:33:57;3.13;;;2.03;;
16813;SDS011;8524;57.650;11.926;2023-05-02T05:36:25;4.27;;;2.40;;
16813;SDS011;8524;57.650;11.926;2023-05-02T05:38:52;3.67;;;2.40;;
16813;SDS011;8524;57.650;11.926;2023-05-02T05:41:22;2.80;;;2.23;;
16813;SDS011;8524;57.650;11.926;2023-05-02T05:43:51;3.03;;;2.40;;
16813;SDS011;8524;57.650;11.926;2023-05-02T05:46:18;3.23;;;2.23;;
16813;SDS011;8524;57.650;11.926;2023-05-02T05:48:45;2.83;;;2.40;;
16813;SDS011;8524;57.650;11.926;2023-05-02T05:51:11;5.37;;;2.47;;
16813;SDS011;8524;57.650;11.926;2023-05-02T05:53:39;2.83;;;2.30;;
16813;SDS011;8524;57.650;11.926;2023-05-02T05:56:09;3.53;;;2.00;;
16813;SDS011;8524;57.650;11.926;2023-05-02T05:58:37;7.77;;;2.80;;
16813;SDS011;8524;57.650;11.926;2023-05-02T06:01:06;4.03;;;2.20;;
16813;SDS011;8524;57.650;11.926;2023-05-02T06:03:33;2.77;;;2.17;;
16813;SDS011;8524;57.650;11.926;2023-05-02T06:06:00;5.10;;;2.60;;
16813;SDS011;8524;57.650;11.926;2023-05-02T06:08:27;3.03;;;1.93;;
16813;SDS011;8524;57.650;11.926;2023-05-02T06:10:54;2.20;;;2.00;;
16813;SDS011;8524;57.650;11.926;2023-05-02T06:13:21;4.47;;;2.47;;
16813;SDS011;8524;57.650;11.926;2023-05-02T06:15:50;2.80;;;2.03;;
16813;SDS011;8524;57.650;11.926;2023-05-02T06:18:17;4.07;;;2.10;;
16813;SDS011;8524;57.650;11.926;2023-05-02T06:20:44;2.00;;;1.90;;
16813;SDS011;8524;57.650;11.926;2023-05-02T06:23:11;6.30;;;2.43;;
16813;SDS011;8524;57.650;11.926;2023-05-02T06:25:38;2.67;;;2.37;;
16813;SDS011;8524;57.650;11.926;2023-05-02T06:28:06;2.97;;;1.63;;
16813;SDS011;8524;57.650;11.926;2023-05-02T06:30:33;2.20;;;2.00;;
16813;SDS011;8524;57.650;11.926;2023-05-02T06:33:04;3.63;;;1.80;;
16813;SDS011;8524;57.650;11.926;2023-05-02T06:35:31;5.17;;;2.23;;
16813;SDS011;8524;57.650;11.926;2023-05-02T06:37:58;3.53;;;2.00;;
16813;SDS011;8524;57.650;11.926;2023-05-02T06:40:25;2.67;;;2.20;;
16813;SDS011;8524;57.650;11.926;2023-05-02T06:42:53;9.50;;;3.17;;
16813;SDS011;8524;57.650;11.926;2023-05-02T06:45:20;2.90;;;1.77;;
16813;SDS011;8524;57.650;11.926;2023-05-02T06:47:47;3.80;;;2.03;;
16813;SDS011;8524;57.650;11.926;2023-05-02T06:50:18;3.20;;;1.80;;
16813;SDS011;8524;57.650;11.926;2023-05-02T06:52:46;2.83;;;1.80;;
16813;SDS011;8524;57.650;11.926;2023-05-02T06:55:13;7.57;;;2.10;;
16813;SDS011;8524;57.650;11.926;2023-05-02T06:57:40;3.23;;;1.93;;
16813;SDS011;8524;57.650;11.926;2023-05-02T07:00:09;3.70;;;1.87;;
16813;SDS011;8524;57.650;11.926;2023-05-02T07:02:38;6.27;;;2.10;;
16813;SDS011;8524;57.650;11.926;2023-05-02T07:05:07;4.83;;;2.07;;
16813;SDS011;8524;57.650;11.926;2023-05-02T07:07:36;4.37;;;1.87;;
16813;SDS011;8524;57.650;11.926;2023-05-02T07:10:04;3.00;;;1.77;;
16813;SDS011;8524;57.650;11.926;2023-05-02T07:12:31;2.40;;;1.63;;
16813;SDS011;8524;57.650;11.926;2023-05-02T07:14:59;2.53;;;1.63;;
16813;SDS011;8524;57.650;11.926;2023-05-02T07:17:26;3.43;;;1.90;;
16813;SDS011;8524;57.650;11.926;2023-05-02T07:19:53;10.93;;;2.73;;
16813;SDS011;8524;57.650;11.926;2023-05-02T07:22:21;9.73;;;3.30;;
16813;SDS011;8524;57.650;11.926;2023-05-02T07:24:55;3.37;;;1.80;;
16813;SDS011;8524;57.650;11.926;2023-05-02T07:27:23;1.67;;;1.47;;
16813;SDS011;8524;57.650;11.926;2023-05-02T07:29:50;2.57;;;1.80;;
16813;SDS011;8524;57.650;11.926;2023-05-02T07:32:18;3.50;;;1.70;;
16813;SDS011;8524;57.650;11.926;2023-05-02T07:34:47;2.97;;;1.50;;
16813;SDS011;8524;57.650;11.926;2023-05-02T07:37:14;8.00;;;2.40;;
16813;SDS011;8524;57.650;11.926;2023-05-02T07:39:41;4.13;;;1.53;;
16813;SDS011;8524;57.650;11.926;2023-05-02T07:42:12;2.07;;;1.30;;
16813;SDS011;8524;57.650;11.926;2023-05-02T07:44:40;1.87;;;1.50;;
16813;SDS011;8524;57.650;11.926;2023-05-02T07:47:07;6.27;;;2.27;;
16813;SDS011;8524;57.650;11.926;2023-05-02T07:49:35;1.80;;;1.33;;
16813;SDS011;8524;57.650;11.926;2023-05-02T07:52:02;1.33;;;1.23;;
16813;SDS011;8524;57.650;11.926;2023-05-02T07:54:30;1.20;;;1.10;;
16813;SDS011;8524;57.650;11.926;2023-05-02T07:56:57;2.43;;;1.20;;
16813;SDS011;8524;57.650;11.926;2023-05-02T07:59:29;1.67;;;1.07;;
16813;SDS011;8524;57.650;11.926;2023-05-02T08:01:56;4.67;;;1.50;;
16813;SDS011;8524;57.650;11.926;2023-05-02T08:04:23;4.40;;;1.63;;
16813;SDS011;8524;57.650;11.926;2023-05-02T08:06:51;5.70;;;1.67;;
16813;SDS011;8524;57.650;11.926;2023-05-02T08:09:18;2.57;;;1.30;;
16813;SDS011;8524;57.650;11.926;2023-05-02T08:11:45;1.90;;;1.40;;
16813;SDS011;8524;57.650;11.926;2023-05-02T08:14:12;2.00;;;1.30;;
16813;SDS011;8524;57.650;11.926;2023-05-02T08:16:42;1.60;;;1.20;;
16813;SDS011;8524;57.650;11.926;2023-05-02T08:19:09;2.03;;;1.13;;
16813;SDS011;8524;57.650;11.926;2023-05-02T08:21:36;1.83;;;1.23;;
16813;SDS011;8524;57.650;11.926;2023-05-02T08:24:03;1.10;;;1.00;;
16813;SDS011;8524;57.650;11.926;2023-05-02T08:26:30;1.93;;;1.40;;
16813;SDS011;8524;57.650;11.926;2023-05-02T08:28:58;2.67;;;1.20;;
16813;SDS011;8524;57.650;11.926;2023-05-02T08:31:25;4.53;;;1.30;;
16813;SDS011;8524;57.650;11.926;2023-05-02T08:33:54;2.63;;;1.30;;
16813;SDS011;8524;57.650;11.926;2023-05-02T08:36:21;1.63;;;1.00;;
16813;SDS011;8524;57.650;11.926;2023-05-02T08:38:48;7.43;;;1.67;;
16813;SDS011;8524;57.650;11.926;2023-05-02T08:41:18;1.67;;;0.93;;
16813;SDS011;8524;57.650;11.926;2023-05-02T08:43:45;1.70;;;1.13;;
16813;SDS011;8524;57.650;11.926;2023-05-02T08:46:14;1.47;;;1.20;;
16813;SDS011;8524;57.650;11.926;2023-05-02T08:48:42;1.20;;;1.10;;
16813;SDS011;8524;57.650;11.926;2023-05-02T08:51:14;3.53;;;1.80;;
16813;SDS011;8524;57.650;11.926;2023-05-02T08:53:42;1.53;;;1.17;;
16813;SDS011;8524;57.650;11.926;2023-05-02T08:56:10;1.30;;;1.20;;
16813;SDS011;8524;57.650;11.926;2023-05-02T08:58:38;2.13;;;1.30;;
16813;SDS011;8524;57.650;11.926;2023-05-02T09:01:08;1.13;;;1.00;;
16813;SDS011;8524;57.650;11.926;2023-05-02T09:03:46;1.67;;;0.83;;
16813;SDS011;8524;57.650;11.926;2023-05-02T09:06:15;4.00;;;1.57;;
16813;SDS011;8524;57.650;11.926;2023-05-02T09:08:44;1.57;;;1.00;;
16813;SDS011;8524;57.650;11.926;2023-05-02T09:11:13;1.80;;;1.20;;
16813;SDS011;8524;57.650;11.926;2023-05-02T09:13:41;1.00;;;0.90;;
16813;SDS011;8524;57.650;11.926;2023-05-02T09:16:09;1.67;;;1.00;;
16813;SDS011;8524;57.650;11.926;2023-05-02T09:18:39;0.97;;;0.87;;
16813;SDS011;8524;57.650;11.926;2023-05-02T09:21:08;3.23;;;1.00;;
16813;SDS011;8524;57.650;11.926;2023-05-02T09:23:38;1.47;;;1.10;;
16813;SDS011;8524;57.650;11.926;2023-05-02T09:26:10;3.83;;;1.20;;
16813;SDS011;8524;57.650;11.926;2023-05-02T09:28:39;2.60;;;0.90;;
16813;SDS011;8524;57.650;11.926;2023-05-02T09:31:07;1.03;;;1.00;;
16813;SDS011;8524;57.650;11.926;2023-05-02T09:33:35;0.83;;;0.80;;
16813;SDS011;8524;57.650;11.926;2023-05-02T09:36:04;1.10;;;0.90;;
16813;SDS011;8524;57.650;11.926;2023-05-02T09:38:32;1.73;;;1.10;;
16813;SDS011;8524;57.650;11.926;2023-05-02T09:41:01;2.57;;;0.77;;
16813;SDS011;8524;57.650;11.926;2023-05-02T09:43:29;1.23;;;1.03;;
16813;SDS011;8524;57.650;11.926;2023-05-02T09:45:57;3.53;;;1.10;;
16813;SDS011;8524;57.650;11.926;2023-05-02T09:48:26;1.47;;;0.90;;
16813;SDS011;8524;57.650;11.926;2023-05-02T09:50:54;3.33;;;1.00;;
16813;SDS011;8524;57.650;11.926;2023-05-02T09:53:23;2.60;;;1.20;;
16813;SDS011;8524;57.650;11.926;2023-05-02T09:55:58;3.90;;;1.30;;
16813;SDS011;8524;57.650;11.926;2023-05-02T09:58:27;2.00;;;0.80;;
16813;SDS011;8524;57.650;11.926;2023-05-02T10:00:56;0.97;;;0.90;;
16813;SDS011;8524;57.650;11.926;2023-05-02T10:03:26;3.97;;;0.90;;
16813;SDS011;8524;57.650;11.926;2023-05-02T10:05:56;0.93;;;0.73;;
16813;SDS011;8524;57.650;11.926;2023-05-02T10:08:24;3.07;;;0.83;;
16813;SDS011;8524;57.650;11.926;2023-05-02T10:10:53;1.50;;;0.87;;
16813;SDS011;8524;57.650;11.926;2023-05-02T10:13:25;3.27;;;1.47;;
16813;SDS011;8524;57.650;11.926;2023-05-02T10:15:57;1.63;;;0.80;;
16813;SDS011;8524;57.650;11.926;2023-05-02T10:18:26;2.57;;;1.00;;
16813;SDS011;8524;57.650;11.926;2023-05-02T10:20:57;1.33;;;0.80;;
16813;SDS011;8524;57.650;11.926;2023-05-02T10:23:26;2.10;;;1.00;;
16813;SDS011;8524;57.650;11.926;2023-05-02T10:25:56;1.20;;;0.80;;
16813;SDS011;8524;57.650;11.926;2023-05-02T10:28:25;1.67;;;0.97;;
16813;SDS011;8524;57.650;11.926;2023-05-02T10:30:55;1.27;;;0.80;;
16813;SDS011;8524;57.650;11.926;2023-05-02T10:33:26;1.97;;;0.90;;
16813;SDS011;8524;57.650;11.926;2023-05-02T10:35:56;1.37;;;1.00;;
16813;SDS011;8524;57.650;11.926;2023-05-02T10:38:23;1.27;;;1.00;;
16813;SDS011;8524;57.650;11.926;2023-05-02T10:40:52;2.47;;;1.17;;
16813;SDS011;8524;57.650;11.926;2023-05-02T10:43:24;1.97;;;1.17;;
16813;SDS011;8524;57.650;11.926;2023-05-02T10:45:56;2.37;;;1.10;;
16813;SDS011;8524;57.650;11.926;2023-05-02T10:48:24;1.50;;;1.17;;
16813;SDS011;8524;57.650;11.926;2023-05-02T10:50:53;1.47;;;1.10;;
16813;SDS011;8524;57.650;11.926;2023-05-02T10:53:22;1.97;;;0.80;;
16813;SDS011;8524;57.650;11.926;2023-05-02T10:58:42;1.93;;;1.00;;
16813;SDS011;8524;57.650;11.926;2023-05-02T11:04:10;2.00;;;1.03;;
16813;SDS011;8524;57.650;11.926;2023-05-02T11:09:41;2.30;;;0.93;;
16813;SDS011;8524;57.650;11.926;2023-05-02T11:12:09;1.23;;;0.90;;
16813;SDS011;8524;57.650;11.926;2023-05-02T11:14:44;1.57;;;0.97;;
16813;SDS011;8524;57.650;11.926;2023-05-02T11:17:12;2.50;;;1.20;;
16813;SDS011;8524;57.650;11.926;2023-05-02T11:22:55;1.63;;;0.90;;
16813;SDS011;8524;57.650;11.926;2023-05-02T11:25:28;1.13;;;0.90;;
16813;SDS011;8524;57.650;11.926;2023-05-02T11:28:05;0.80;;;0.73;;
16813;SDS011;8524;57.650;11.926;2023-05-02T11:30:38;1.63;;;1.00;;
16813;SDS011;8524;57.650;11.926;2023-05-02T11:33:11;2.03;;;1.03;;
16813;SDS011;8524;57.650;11.926;2023-05-02T11:35:41;1.13;;;0.87;;
16813;SDS011;8524;57.650;11.926;2023-05-02T11:38:11;1.53;;;1.00;;
16813;SDS011;8524;57.650;11.926;2023-05-02T11:40:46;3.33;;;1.03;;
16813;SDS011;8524;57.650;11.926;2023-05-02T11:43:20;1.47;;;0.80;;
16813;SDS011;8524;57.650;11.926;2023-05-02T11:45:50;2.50;;;0.87;;
16813;SDS011;8524;57.650;11.926;2023-05-02T11:48:19;1.07;;;0.70;;
16813;SDS011;8524;57.650;11.926;2023-05-02T11:50:47;1.07;;;0.70;;
16813;SDS011;8524;57.650;11.926;2023-05-02T11:53:17;0.80;;;0.80;;
16813;SDS011;8524;57.650;11.926;2023-05-02T11:55:46;0.70;;;0.70;;
16813;SDS011;8524;57.650;11.926;2023-05-02T11:58:15;1.50;;;0.97;;
16813;SDS011;8524;57.650;11.926;2023-05-02T12:00:46;1.60;;;0.90;;
16813;SDS011;8524;57.650;11.926;2023-05-02T12:03:20;1.83;;;0.80;;
16813;SDS011;8524;57.650;11.926;2023-05-02T12:05:48;1.00;;;0.83;;
16813;SDS011;8524;57.650;11.926;2023-05-02T12:08:17;2.27;;;1.00;;
16813;SDS011;8524;57.650;11.926;2023-05-02T12:10:48;1.30;;;0.67;;
16813;SDS011;8524;57.650;11.926;2023-05-02T12:13:17;2.83;;;0.90;;
16813;SDS011;8524;57.650;11.926;2023-05-02T12:15:45;2.67;;;1.07;;
16813;SDS011;8524;57.650;11.926;2023-05-02T12:18:14;1.67;;;0.90;;
16813;SDS011;8524;57.650;11.926;2023-05-02T12:20:43;1.30;;;0.80;;
16813;SDS011;8524;57.650;11.926;2023-05-02T12:23:11;0.97;;;0.70;;
16813;SDS011;8524;57.650;11.926;2023-05-02T12:25:39;1.43;;;0.90;;
16813;SDS011;8524;57.650;11.926;2023-05-02T12:28:08;10.43;;;2.03;;
16813;SDS011;8524;57.650;11.926;2023-05-02T12:30:36;1.00;;;0.90;;
16813;SDS011;8524;57.650;11.926;2023-05-02T12:33:05;1.37;;;0.90;;
16813;SDS011;8524;57.650;11.926;2023-05-02T12:35:33;1.10;;;1.00;;
16813;SDS011;8524;57.650;11.926;2023-05-02T12:38:09;1.07;;;0.67;;
16813;SDS011;8524;57.650;11.926;2023-05-02T12:40:38;2.70;;;1.00;;
16813;SDS011;8524;57.650;11.926;2023-05-02T12:43:11;2.03;;;0.90;;
16813;SDS011;8524;57.650;11.926;2023-05-02T12:45:39;2.40;;;0.80;;
16813;SDS011;8524;57.650;11.926;2023-05-02T12:48:18;1.50;;;0.80;;
16813;SDS011;8524;57.650;11.926;2023-05-02T12:50:47;1.97;;;0.80;;
16813;SDS011;8524;57.650;11.926;2023-05-02T12:53:16;1.43;;;0.70;;
16813;SDS011;8524;57.650;11.926;2023-05-02T12:55:43;1.27;;;0.80;;
16813;SDS011;8524;57.650;11.926;2023-05-02T12:58:10;1.10;;;1.00;;
16813;SDS011;8524;57.650;11.926;2023-05-02T13:00:39;3.17;;;1.10;;
16813;SDS011;8524;57.650;11.926;2023-05-02T13:03:07;0.80;;;0.80;;
16813;SDS011;8524;57.650;11.926;2023-05-02T13:05:35;3.43;;;0.80;;
16813;SDS011;8524;57.650;11.926;2023-05-02T13:08:02;7.70;;;2.17;;
16813;SDS011;8524;57.650;11.926;2023-05-02T13:10:31;2.07;;;1.10;;
16813;SDS011;8524;57.650;11.926;2023-05-02T13:12:58;1.90;;;0.90;;
16813;SDS011;8524;57.650;11.926;2023-05-02T13:15:25;2.27;;;1.00;;
16813;SDS011;8524;57.650;11.926;2023-05-02T13:17:53;3.63;;;1.00;;
16813;SDS011;8524;57.650;11.926;2023-05-02T13:20:20;1.97;;;1.00;;
16813;SDS011;8524;57.650;11.926;2023-05-02T13:22:47;1.30;;;0.80;;
16813;SDS011;8524;57.650;11.926;2023-05-02T13:25:14;1.93;;;1.10;;
16813;SDS011;8524;57.650;11.926;2023-05-02T13:27:42;1.50;;;0.97;;
16813;SDS011;8524;57.650;11.926;2023-05-02T13:30:10;2.50;;;0.93;;
16813;SDS011;8524;57.650;11.926;2023-05-02T13:32:38;1.10;;;0.80;;
16813;SDS011;8524;57.650;11.926;2023-05-02T13:35:06;1.20;;;1.10;;
16813;SDS011;8524;57.650;11.926;2023-05-02T13:37:33;2.00;;;0.80;;
16813;SDS011;8524;57.650;11.926;2023-05-02T13:40:00;1.40;;;1.10;;
16813;SDS011;8524;57.650;11.926;2023-05-02T13:42:28;1.07;;;0.80;;
16813;SDS011;8524;57.650;11.926;2023-05-02T13:44:57;1.73;;;0.83;;
16813;SDS011;8524;57.650;11.926;2023-05-02T13:47:24;1.47;;;0.80;;
16813;SDS011;8524;57.650;11.926;2023-05-02T13:49:51;1.23;;;0.60;;
16813;SDS011;8524;57.650;11.926;2023-05-02T13:52:19;1.93;;;0.90;;
16813;SDS011;8524;57.650;11.926;2023-05-02T13:54:46;1.80;;;0.90;;
16813;SDS011;8524;57.650;11.926;2023-05-02T13:57:16;1.57;;;0.80;;
16813;SDS011;8524;57.650;11.926;2023-05-02T13:59:43;1.03;;;0.77;;
16813;SDS011;8524;57.650;11.926;2023-05-02T14:02:11;2.20;;;1.00;;
16813;SDS011;8524;57.650;11.926;2023-05-02T14:04:38;0.97;;;0.80;;
16813;SDS011;8524;57.650;11.926;2023-05-02T14:07:05;1.27;;;0.80;;
16813;SDS011;8524;57.650;11.926;2023-05-02T14:09:32;1.03;;;0.80;;
16813;SDS011;8524;57.650;11.926;2023-05-02T14:11:59;1.07;;;0.90;;
16813;SDS011;8524;57.650;11.926;2023-05-02T14:14:27;1.53;;;0.80;;
16813;SDS011;8524;57.650;11.926;2023-05-02T14:16:54;1.23;;;0.73;;
16813;SDS011;8524;57.650;11.926;2023-05-02T14:19:23;0.87;;;0.83;;
16813;SDS011;8524;57.650;11.926;2023-05-02T14:21:50;1.93;;;0.90;;
16813;SDS011;8524;57.650;11.926;2023-05-02T14:24:19;1.70;;;0.97;;
16813;SDS011;8524;57.650;11.926;2023-05-02T14:26:47;0.80;;;0.80;;
16813;SDS011;8524;57.650;11.926;2023-05-02T14:29:14;1.43;;;1.13;;
16813;SDS011;8524;57.650;11.926;2023-05-02T14:31:41;1.23;;;0.80;;
16813;SDS011;8524;57.650;11.926;2023-05-02T14:34:10;1.27;;;0.90;;
16813;SDS011;8524;57.650;11.926;2023-05-02T14:36:38;1.20;;;0.83;;
16813;SDS011;8524;57.650;11.926;2023-05-02T14:39:05;2.60;;;1.17;;
16813;SDS011;8524;57.650;11.926;2023-05-02T14:41:32;2.30;;;1.00;;
16813;SDS011;8524;57.650;11.926;2023-05-02T14:43:59;1.63;;;1.10;;
16813;SDS011;8524;57.650;11.926;2023-05-02T14:46:26;2.20;;;0.97;;
16813;SDS011;8524;57.650;11.926;2023-05-02T14:48:53;2.50;;;1.03;;
16813;SDS011;8524;57.650;11.926;2023-05-02T14:51:20;1.87;;;1.10;;
16813;SDS011;8524;57.650;11.926;2023-05-02T14:53:48;1.30;;;0.90;;
16813;SDS011;8524;57.650;11.926;2023-05-02T14:56:15;2.13;;;1.20;;
16813;SDS011;8524;57.650;11.926;2023-05-02T14:58:42;2.63;;;1.10;;
16813;SDS011;8524;57.650;11.926;2023-05-02T15:01:16;1.70;;;1.00;;
16813;SDS011;8524;57.650;11.926;2023-05-02T15:03:43;1.97;;;1.10;;
16813;SDS011;8524;57.650;11.926;2023-05-02T15:06:11;1.37;;;1.10;;
16813;SDS011;8524;57.650;11.926;2023-05-02T15:08:39;2.00;;;1.20;;
16813;SDS011;8524;57.650;11.926;2023-05-02T15:11:07;1.90;;;1.43;;